Terminal Aerodrome Forecast
Issued by NWS Paducah, KY

Home | Current Version | Previous Version | Text Only | Print | Product List | Glossary On
Versions: 1 2 3 4 5 6 7 8 9 10 11 12 13
000
FTUS43 KPAH 271518 AAB
TAFPAH
TAF AMD
KPAH 271518Z 2715/2812 35013KT P6SM VCSH BKN050
     FM271800 35012KT P6SM SCT050 OVC150
     FM272300 35006KT P6SM SCT150 BKN250
     FM280200 VRB03KT P6SM SCT250
     FM281100 VRB03KT P6SM SCT100 OVC250=

USA.gov is the U.S. government's official web portal to all federal, state and local government web resources and services.